Latest Coastal Weather Observations for Low Head

IDV60701

Issued at 4:52 am EST Tuesday 28 June 2022 (issued every 10 minutes, with the page automatically refreshed every 10 minutes)

About coastal observations | Map of coastal stations | Coastal observations for VIC | Marine services | Other Formats
Station Details ID: 091293 Name: LOW HEAD Lat: -41.05 Lon: 146.79 Height: 3.0 m
Data from the previous 72 hours. | See also: Recent months at Low Head
Date/Time
EST
Wind Sea
Height
m
Swell Vis
km
Cloud Weather Temp
°C
Press
MSL
hPa
Rain since
9am
mm
Dir  Spd
kts
Gust
kts
Height
m
Period
s
Dir
28/04:30am CALM 0 0 - - - - - - - 8.5 1028.4 0.0
28/04:00am S 5 6 - - - - - - - 8.2 1028.4 0.0
28/03:30am ENE 4 5 - - - - - - - 8.2 1028.5 0.0
28/03:00am ESE 3 6 - - - - - - - 7.7 1028.8 0.0
28/02:30am SSE 6 7 - - - - - - - 7.0 1029.2 0.0
28/02:00am SSE 4 5 - - - - - - - 6.5 1029.1 0.0
28/01:30am SSE 6 8 - - - - - - - 6.5 1029.2 0.0
28/01:00am SSE 7 8 - - - - - - - 6.0 1029.6 0.0
28/12:30am SSE 5 6 - - - - - - - 6.4 1029.5 0.0
28/12:00am ESE 3 5 - - - - - - - 6.5 1029.7 0.0
 
Date/Time
EST
Wind Sea
Height
m
Swell Vis
km
Cloud Weather Temp
°C
Press
MSL
hPa
Rain since
9am
mm
Dir  Spd
kts
Gust
kts
Height
m
Period
s
Dir
27/11:30pm SSE 5 6 - - - - - - - 7.1 1030.2 0.0
27/11:00pm SSW 4 6 - - - - - - - 7.3 1030.3 0.0
27/10:30pm SSE 4 5 - - - - - - - 7.0 1030.6 0.0
27/10:00pm SSW 4 5 - - - - - - - 7.6 1030.3 0.0
27/09:30pm SSW 5 5 - - - - - - - 8.3 1030.6 0.0
27/09:00pm S 1 4 - - - - - - - 7.9 1030.5 0.0
27/08:30pm ESE 2 3 - - - - - - - 7.6 1030.5 0.0
27/08:00pm S 3 4 - - - - - - - 7.6 1030.5 0.0
27/07:30pm S 4 6 - - - - - - - 8.1 1030.6 0.0
27/07:00pm SSW 5 6 - - - - - - - 9.0 1030.7 0.0
27/06:30pm WNW 5 7 - - - - - - - 9.8 1030.3 0.0
27/06:00pm SW 4 5 - - - - - - - 9.7 1030.4 0.0
27/05:30pm NW 5 7 - - - - - - - 10.1 1030.1 0.0
27/05:00pm WNW 5 7 - - - - - - - 9.9 1029.9 0.0
27/04:30pm W 6 8 - - - - - - - 10.3 1030.1 0.0
27/04:00pm W 10 12 - - - - - - - 10.8 1030.0 0.0
27/03:30pm W 7 8 - - - - - - - 10.4 1029.7 0.0
27/03:00pm WNW 7 9 - - - - - - - 10.8 1029.8 0.0
27/02:30pm WNW 8 9 - - - - - - - 11.1 1029.6 0.0
27/02:00pm W 7 9 - - - - - - - 11.1 1029.6 0.0
27/01:30pm W 8 8 - - - - - - - 11.0 1029.7 0.0
27/01:00pm NW 5 6 - - - - - - - 11.3 1029.9 0.0
27/12:30pm WSW 4 6 - - - - - - - 9.8 1030.1 0.0
27/12:00pm SW 4 6 - - - - - - - 9.1 1030.3 0.0
27/11:30am SSW 5 7 - - - - - - - 7.8 1030.4 0.0
27/11:00am S 7 9 - - - - - - - 6.9 1030.3 0.0
27/10:30am SSE 9 10 - - - - - - - 6.2 1029.9 0.0
27/10:00am SSE 8 10 - - - - - - - 5.9 1030.2 0.0
27/09:30am SSE 10 12 - - - - - - - 4.5 1029.7 0.0
27/09:00am S 10 11 - - - - - - - 4.1 1029.5 0.0
27/08:30am SSE 9 11 - - - - - - - 3.7 1029.1 0.0
27/08:00am SSE 9 11 - - - - - - - 3.4 1028.5 0.0
27/07:30am SE 8 10 - - - - - - - 2.3 1028.2 0.0
27/07:00am SSE 9 10 - - - - - - - 4.7 1027.8 0.0
27/06:30am SSE 8 11 - - - - - - - 3.4 1027.5 0.0
27/06:00am SSE 7 9 - - - - - - - 3.9 1027.0 0.0
27/05:30am SSE 7 8 - - - - - - - 3.6 1026.5 0.0
27/05:00am SSE 8 12 - - - - - - - 3.8 1026.2 0.0
27/04:30am SSE 7 9 - - - - - - - 4.2 1026.0 0.0
27/04:00am S 7 8 - - - - - - - 5.0 1025.9 0.0
27/03:30am SSE 6 9 - - - - - - - 5.3 1025.9 0.0
27/03:00am SSE 6 7 - - - - - - - 5.0 1025.8 0.0
27/02:30am SSE 7 8 - - - - - - - 4.9 1025.6 0.0
27/02:00am SSW 4 5 - - - - - - - 6.6 1025.3 0.0
27/01:30am SW 7 8 - - - - - - - 7.4 1025.0 0.0
27/01:00am SSE 6 7 - - - - - - - 5.8 1024.8 0.0
27/12:30am WSW 9 12 - - - - - - - 7.8 1024.6 0.0
27/12:00am SW 10 16 - - - - - - - 7.8 1024.4 0.0
 
Date/Time
EST
Wind Sea
Height
m
Swell Vis
km
Cloud Weather Temp
°C
Press
MSL
hPa
Rain since
9am
mm
Dir  Spd
kts
Gust
kts
Height
m
Period
s
Dir
26/11:30pm SSW 8 11 - - - - - - - 7.5 1024.3 0.0
26/11:00pm WSW 15 17 - - - - - - - 8.6 1023.9 0.0
26/10:30pm WSW 15 18 - - - - - - - 8.9 1023.7 0.0
26/10:00pm WSW 16 18 - - - - - - - 8.8 1023.3 0.0
26/09:30pm WSW 14 17 - - - - - - - 8.7 1023.4 0.0
26/09:00pm WSW 13 16 - - - - - - - 8.8 1023.1 0.0
26/08:30pm SW 14 16 - - - - - - - 8.9 1022.7 0.0
26/08:00pm WSW 13 16 - - - - - - - 9.5 1022.5 0.0
26/07:30pm WSW 11 13 - - - - - - - 9.9 1022.2 0.0
26/07:00pm WSW 13 15 - - - - - - - 9.7 1021.9 0.0
26/06:30pm WSW 15 17 - - - - - - - 10.1 1021.4 0.0
26/06:00pm WSW 20 23 - - - - - - - 10.8 1020.9 0.0
26/05:30pm WSW 19 23 - - - - - - - 10.8 1020.6 0.0
26/05:00pm WSW 19 23 - - - - - - - 10.9 1020.2 0.0
26/04:30pm W 20 23 - - - - - - - 11.2 1019.8 0.0
26/04:00pm WSW 18 23 - - - - - - - 11.4 1019.5 0.0
26/03:30pm WSW 19 23 - - - - - - - 11.4 1019.4 0.0
26/03:00pm WSW 19 23 - - - - - - - 11.6 1018.9 0.0
26/02:30pm WSW 17 20 - - - - - - - 11.6 1018.6 0.0
26/02:00pm WSW 18 23 - - - - - - - 11.6 1018.4 0.0
26/01:30pm WSW 20 23 - - - - - - - 11.4 1018.4 0.0
26/01:00pm WSW 19 23 - - - - - - - 11.5 1018.4 0.0
26/12:30pm WSW 19 24 - - - - - - - 11.3 1018.2 0.0
26/12:00pm WSW 18 22 - - - - - - - 10.9 1018.3 0.0
26/11:30am WSW 18 21 - - - - - - - 10.9 1018.5 0.0
26/11:00am W 19 22 - - - - - - - 10.6 1018.3 0.0
26/10:30am WSW 18 21 - - - - - - - 10.5 1018.4 0.0
26/10:00am WSW 19 22 - - - - - - - 10.8 1018.2 0.0
26/09:30am W 20 23 - - - - - - - 10.9 1018.0 0.0
26/09:00am W 20 25 - - - - - - - 10.6 1017.9 9.4
26/08:30am W 22 28 - - - - - - - 10.7 1017.5 9.4
26/08:00am W 20 25 - - - - - - - 10.7 1017.2 9.4
26/07:30am WSW 19 25 - - - - - - - 10.6 1016.7 9.4
26/07:00am W 24 28 - - - - - - - 10.6 1015.9 9.4
26/06:30am W 24 28 - - - - - - - 10.8 1015.3 9.4
26/06:00am W 24 29 - - - - - - - 10.9 1014.7 9.4
26/05:30am W 24 31 - - - - - - - 11.1 1014.0 9.4
26/05:00am W 25 30 - - - - - - - 11.2 1013.5 9.4
26/04:30am W 27 32 - - - - - - - 11.3 1013.0 9.4
26/04:00am W 25 30 - - - - - - - 11.6 1012.8 9.4
26/03:30am W 26 29 - - - - - - - 11.7 1012.7 9.4
26/03:00am W 27 32 - - - - - - - 11.8 1012.6 9.4
26/02:30am W 26 32 - - - - - - - 12.0 1012.2 9.4
26/02:00am W 24 29 - - - - - - - 12.2 1012.1 9.4
26/01:50am W 25 30 - - - - - - - 12.4 1011.9 9.4
26/01:30am W 34 41 - - - - - - - 12.6 1011.8 9.4
26/01:19am W 33 43 - - - - - - - 12.7 1011.6 9.4
26/01:00am WNW 30 37 - - - - - - - 12.6 1011.5 9.4
26/12:33am WNW 29 39 - - - - - - - 12.9 1011.4 9.4
26/12:30am WNW 29 35 - - - - - - - 12.9 1011.5 9.4
26/12:00am WNW 26 33 - - - - - - - 13.1 1011.4 9.4
 
Date/Time
EST
Wind Sea
Height
m
Swell Vis
km
Cloud Weather Temp
°C
Press
MSL
hPa
Rain since
9am
mm
Dir  Spd
kts
Gust
kts
Height
m
Period
s
Dir
25/11:30pm WNW 28 33 - - - - - - - 13.0 1011.5 9.4
25/11:00pm WNW 27 33 - - - - - - - 12.4 1011.9 9.4
25/10:30pm WNW 32 43 - - - - - - - 12.1 1012.0 9.4
25/10:28pm WNW 33 43 - - - - - - - 11.9 1011.9 9.4
25/10:23pm NW 29 43 - - - - - - - 12.1 1012.1 9.0
25/10:20pm NW 26 42 - - - - - - - 12.6 1012.0 8.6
25/10:00pm NW 26 31 - - - - - - - 13.0 1011.9 6.6
25/09:50pm WNW 22 32 - - - - - - - 12.9 1011.9 6.2
25/09:30pm WNW 20 23 - - - - - - - 12.5 1012.1 6.2
25/09:00pm WNW 23 28 - - - - - - Recent precip. 12.7 1012.2 2.4
25/08:30pm W 21 24 - - - - - - - 12.8 1012.3 2.4
25/08:00pm W 22 27 - - - - - - - 12.2 1012.5 2.2
25/07:45pm WNW 27 33 - - - - - - - 12.6 1012.4 0.8
25/07:30pm WNW 28 33 - - - - - - - 13.8 1012.1 0.4
25/07:00pm WNW 25 32 - - - - - - - 13.7 1011.8 0.4
25/06:30pm WNW 28 32 - - - - - - - 13.5 1011.8 0.4
25/06:00pm WNW 26 31 - - - - - - - 13.4 1011.6 0.4
25/05:30pm WNW 27 32 - - - - - - - 13.1 1011.3 0.4
25/05:00pm WNW 27 35 - - - - - - - 12.8 1011.2 0.4
25/04:30pm WNW 28 37 - - - - - - - 12.5 1011.3 0.4
25/04:18pm WNW 23 39 - - - - - - - 13.4 1011.3 0.2
25/04:00pm WNW 26 31 - - - - - - - 13.5 1011.2 0.2
25/03:30pm WNW 27 32 - - - - - - - 13.6 1011.0 0.2
25/03:00pm WNW 29 33 - - - - - - - 13.6 1010.8 0.2
25/02:30pm WNW 28 33 - - - - - - - 13.5 1010.7 0.2
25/02:00pm WNW 28 35 - - - - - - - 13.6 1010.8 0.2
25/01:30pm WNW 27 34 - - - - - - - 13.8 1010.8 0.2
25/01:00pm WNW 27 32 - - - - - - - 13.5 1011.0 0.2
25/12:30pm WNW 24 28 - - - - - - - 13.1 1011.2 0.2
25/12:00pm WNW 23 26 - - - - - - - 13.2 1011.4 0.0
25/11:30am WNW 28 33 - - - - - - - 13.2 1011.6 0.0
25/11:00am W 27 33 - - - - - - - 12.9 1012.0 0.0
25/10:30am WNW 29 34 - - - - - - - 13.7 1012.2 0.0
25/10:00am WNW 26 34 - - - - - - - 13.6 1011.9 0.0
25/09:30am WNW 25 31 - - - - - - - 13.7 1011.4 0.0
25/09:00am WNW 28 33 - - - - - - - 13.4 1011.3 2.2
25/08:30am W 25 32 - - - - - - - 13.1 1011.3 2.2
25/08:00am W 29 35 - - - - - - - 13.2 1011.1 2.2
25/07:30am WNW 28 34 - - - - - - - 13.0 1010.9 2.2
25/07:00am WNW 27 32 - - - - - - - 12.8 1010.8 2.2
25/06:30am W 27 31 - - - - - - - 12.8 1010.6 2.2
25/06:00am WNW 27 32 - - - - - - Recent precip. 12.6 1010.4 2.2
25/05:30am W 27 34 - - - - - - - 12.2 1010.3 2.2
25/05:00am W 22 27 - - - - - - - 12.2 1010.2 1.8

Other formats

Comma delimited format used in spreadsheet applications
http://www.bom.gov.au/fwo/IDV60701/IDV60701.95964.axf

JavaScript Object Notation format (JSON) in row-major order
http://www.bom.gov.au/fwo/IDV60701/IDV60701.95964.json

Data quality

Most of these data are generated automatically and are frequently updated. Quality checks on data are not normally performed. It is possible for incorrect values to appear. Refer to information at About Latest Weather Observations and please check the disclaimer before using these data.